sensor_id;sensor_type;location;lat;lon;timestamp;pressure;altitude;pressure_sealevel;temperature
24586;BMP280;12743;52.262;6.172;2023-04-29T00:00:05;99587.53;;;9.78
24586;BMP280;12743;52.262;6.172;2023-04-29T00:02:38;99623.97;;;10.02
24586;BMP280;12743;52.262;6.172;2023-04-29T00:05:05;99623.47;;;9.96
24586;BMP280;12743;52.262;6.172;2023-04-29T00:07:33;99631.31;;;9.93
24586;BMP280;12743;52.262;6.172;2023-04-29T00:09:59;99627.91;;;9.92
24586;BMP280;12743;52.262;6.172;2023-04-29T00:12:26;99630.22;;;9.97
24586;BMP280;12743;52.262;6.172;2023-04-29T00:14:53;99644.31;;;9.89
24586;BMP280;12743;52.262;6.172;2023-04-29T00:17:20;99641.06;;;9.96
24586;BMP280;12743;52.262;6.172;2023-04-29T00:19:46;99639.06;;;9.89
24586;BMP280;12743;52.262;6.172;2023-04-29T00:22:13;99644.06;;;9.94
24586;BMP280;12743;52.262;6.172;2023-04-29T00:24:40;99652.94;;;9.90
24586;BMP280;12743;52.262;6.172;2023-04-29T00:27:06;99655.13;;;9.88
24586;BMP280;12743;52.262;6.172;2023-04-29T00:29:33;99654.31;;;9.84
24586;BMP280;12743;52.262;6.172;2023-04-29T00:31:59;99658.47;;;9.85
24586;BMP280;12743;52.262;6.172;2023-04-29T00:34:26;99666.66;;;9.83
24586;BMP280;12743;52.262;6.172;2023-04-29T00:36:53;99668.66;;;9.90
24586;BMP280;12743;52.262;6.172;2023-04-29T00:39:20;99677.91;;;9.84
24586;BMP280;12743;52.262;6.172;2023-04-29T00:41:47;99679.03;;;9.83
24586;BMP280;12743;52.262;6.172;2023-04-29T00:44:13;99682.22;;;9.92
24586;BMP280;12743;52.262;6.172;2023-04-29T00:46:40;99683.91;;;9.84
24586;BMP280;12743;52.262;6.172;2023-04-29T00:49:07;99681.97;;;9.81
24586;BMP280;12743;52.262;6.172;2023-04-29T00:51:35;99660.00;;;9.70
24586;BMP280;12743;52.262;6.172;2023-04-29T00:54:03;99692.19;;;9.86
24586;BMP280;12743;52.262;6.172;2023-04-29T00:56:33;99709.41;;;9.68
24586;BMP280;12743;52.262;6.172;2023-04-29T00:59:01;99708.22;;;9.66
24586;BMP280;12743;52.262;6.172;2023-04-29T01:01:29;99697.28;;;9.79
24586;BMP280;12743;52.262;6.172;2023-04-29T01:03:56;99710.75;;;9.78
24586;BMP280;12743;52.262;6.172;2023-04-29T01:06:51;99723.59;;;9.67
24586;BMP280;12743;52.262;6.172;2023-04-29T01:09:28;99724.19;;;9.61
24586;BMP280;12743;52.262;6.172;2023-04-29T01:12:25;99723.50;;;9.64
24586;BMP280;12743;52.262;6.172;2023-04-29T01:15:22;99727.19;;;9.59
24586;BMP280;12743;52.262;6.172;2023-04-29T01:18:06;99730.19;;;9.61
24586;BMP280;12743;52.262;6.172;2023-04-29T01:20:36;99727.34;;;9.66
24586;BMP280;12743;52.262;6.172;2023-04-29T01:23:04;99733.56;;;9.62
24586;BMP280;12743;52.262;6.172;2023-04-29T01:25:30;99740.00;;;9.64
24586;BMP280;12743;52.262;6.172;2023-04-29T01:28:58;99742.41;;;9.69
24586;BMP280;12743;52.262;6.172;2023-04-29T01:31:30;99748.22;;;9.63
24586;BMP280;12743;52.262;6.172;2023-04-29T01:34:07;99752.84;;;9.54
24586;BMP280;12743;52.262;6.172;2023-04-29T01:36:46;99753.47;;;9.63
24586;BMP280;12743;52.262;6.172;2023-04-29T01:42:44;99771.13;;;9.66
24586;BMP280;12743;52.262;6.172;2023-04-29T01:45:15;99773.22;;;9.60
24586;BMP280;12743;52.262;6.172;2023-04-29T01:47:45;99778.31;;;9.53
24586;BMP280;12743;52.262;6.172;2023-04-29T01:50:13;99774.56;;;9.54
24586;BMP280;12743;52.262;6.172;2023-04-29T01:52:39;99760.41;;;9.39
24586;BMP280;12743;52.262;6.172;2023-04-29T01:55:07;99775.94;;;9.48
24586;BMP280;12743;52.262;6.172;2023-04-29T01:57:41;99785.63;;;9.60
24586;BMP280;12743;52.262;6.172;2023-04-29T02:00:41;99787.94;;;9.65
24586;BMP280;12743;52.262;6.172;2023-04-29T02:03:08;99783.31;;;9.58
24586;BMP280;12743;52.262;6.172;2023-04-29T02:05:38;99787.03;;;9.57
24586;BMP280;12743;52.262;6.172;2023-04-29T02:08:05;99791.41;;;9.53
24586;BMP280;12743;52.262;6.172;2023-04-29T02:10:37;99792.25;;;9.57
24586;BMP280;12743;52.262;6.172;2023-04-29T02:13:14;99772.38;;;9.40
24586;BMP280;12743;52.262;6.172;2023-04-29T02:15:41;99806.81;;;9.55
24586;BMP280;12743;52.262;6.172;2023-04-29T02:18:08;99805.59;;;9.52
24586;BMP280;12743;52.262;6.172;2023-04-29T02:20:35;99803.09;;;9.40
24586;BMP280;12743;52.262;6.172;2023-04-29T02:23:04;99812.81;;;9.55
24586;BMP280;12743;52.262;6.172;2023-04-29T02:25:30;99812.97;;;9.47
24586;BMP280;12743;52.262;6.172;2023-04-29T02:27:57;99810.94;;;9.40
24586;BMP280;12743;52.262;6.172;2023-04-29T02:30:24;99816.50;;;9.38
24586;BMP280;12743;52.262;6.172;2023-04-29T02:32:51;99807.56;;;9.39
24586;BMP280;12743;52.262;6.172;2023-04-29T02:35:18;99816.59;;;9.42
24586;BMP280;12743;52.262;6.172;2023-04-29T02:37:46;99809.22;;;9.32
24586;BMP280;12743;52.262;6.172;2023-04-29T02:40:12;99822.59;;;9.43
24586;BMP280;12743;52.262;6.172;2023-04-29T02:42:39;99830.44;;;9.43
24586;BMP280;12743;52.262;6.172;2023-04-29T02:45:06;99836.03;;;9.41
24586;BMP280;12743;52.262;6.172;2023-04-29T02:47:32;99839.81;;;9.43
24586;BMP280;12743;52.262;6.172;2023-04-29T02:49:59;99824.69;;;9.37
24586;BMP280;12743;52.262;6.172;2023-04-29T02:52:26;99851.22;;;9.35
24586;BMP280;12743;52.262;6.172;2023-04-29T02:54:52;99850.47;;;9.35
24586;BMP280;12743;52.262;6.172;2023-04-29T02:57:19;99844.81;;;9.33
24586;BMP280;12743;52.262;6.172;2023-04-29T02:59:46;99853.84;;;9.35
24586;BMP280;12743;52.262;6.172;2023-04-29T03:02:12;99858.59;;;9.30
24586;BMP280;12743;52.262;6.172;2023-04-29T03:04:41;99868.97;;;9.26
24586;BMP280;12743;52.262;6.172;2023-04-29T03:07:08;99869.28;;;9.25
24586;BMP280;12743;52.262;6.172;2023-04-29T03:09:35;99882.59;;;9.32
24586;BMP280;12743;52.262;6.172;2023-04-29T03:12:02;99880.28;;;9.30
24586;BMP280;12743;52.262;6.172;2023-04-29T03:14:29;99886.94;;;9.40
24586;BMP280;12743;52.262;6.172;2023-04-29T03:16:57;99891.88;;;9.29
24586;BMP280;12743;52.262;6.172;2023-04-29T03:19:24;99895.91;;;9.27
24586;BMP280;12743;52.262;6.172;2023-04-29T03:21:50;99876.75;;;9.23
24586;BMP280;12743;52.262;6.172;2023-04-29T03:24:19;99874.34;;;9.06
24586;BMP280;12743;52.262;6.172;2023-04-29T03:26:46;99908.81;;;9.20
24586;BMP280;12743;52.262;6.172;2023-04-29T03:29:13;99913.41;;;9.23
24586;BMP280;12743;52.262;6.172;2023-04-29T03:31:39;99921.34;;;9.26
24586;BMP280;12743;52.262;6.172;2023-04-29T03:34:06;99915.66;;;9.24
24586;BMP280;12743;52.262;6.172;2023-04-29T03:36:37;99921.59;;;9.21
24586;BMP280;12743;52.262;6.172;2023-04-29T03:39:07;99917.53;;;9.24
24586;BMP280;12743;52.262;6.172;2023-04-29T03:41:34;99923.91;;;9.23
24586;BMP280;12743;52.262;6.172;2023-04-29T03:44:01;99910.78;;;9.23
24586;BMP280;12743;52.262;6.172;2023-04-29T03:46:28;99919.63;;;9.18
24586;BMP280;12743;52.262;6.172;2023-04-29T03:48:55;99917.97;;;9.26
24586;BMP280;12743;52.262;6.172;2023-04-29T03:51:25;99912.09;;;9.17
24586;BMP280;12743;52.262;6.172;2023-04-29T03:54:03;99903.41;;;9.01
24586;BMP280;12743;52.262;6.172;2023-04-29T03:56:30;99918.44;;;9.16
24586;BMP280;12743;52.262;6.172;2023-04-29T03:58:56;99932.72;;;9.18
24586;BMP280;12743;52.262;6.172;2023-04-29T04:01:25;99926.72;;;9.18
24586;BMP280;12743;52.262;6.172;2023-04-29T04:03:51;99941.22;;;9.27
24586;BMP280;12743;52.262;6.172;2023-04-29T04:06:18;99942.84;;;9.32
24586;BMP280;12743;52.262;6.172;2023-04-29T04:08:46;99940.13;;;9.28
24586;BMP280;12743;52.262;6.172;2023-04-29T04:11:16;99956.09;;;9.23
24586;BMP280;12743;52.262;6.172;2023-04-29T04:13:47;99935.34;;;9.18
24586;BMP280;12743;52.262;6.172;2023-04-29T04:16:15;99960.78;;;9.30
24586;BMP280;12743;52.262;6.172;2023-04-29T04:18:42;99956.94;;;9.27
24586;BMP280;12743;52.262;6.172;2023-04-29T04:21:10;99953.22;;;9.28
24586;BMP280;12743;52.262;6.172;2023-04-29T04:23:40;99960.13;;;9.33
24586;BMP280;12743;52.262;6.172;2023-04-29T04:26:09;99950.91;;;9.27
24586;BMP280;12743;52.262;6.172;2023-04-29T04:28:54;99962.72;;;9.21
24586;BMP280;12743;52.262;6.172;2023-04-29T04:31:40;99927.09;;;8.92
24586;BMP280;12743;52.262;6.172;2023-04-29T04:34:07;99965.28;;;9.05
24586;BMP280;12743;52.262;6.172;2023-04-29T04:36:34;99957.63;;;9.12
24586;BMP280;12743;52.262;6.172;2023-04-29T04:39:01;99961.53;;;9.18
24586;BMP280;12743;52.262;6.172;2023-04-29T04:41:27;99964.81;;;9.15
24586;BMP280;12743;52.262;6.172;2023-04-29T04:43:57;99957.50;;;9.09
24586;BMP280;12743;52.262;6.172;2023-04-29T04:46:43;99966.56;;;9.23
24586;BMP280;12743;52.262;6.172;2023-04-29T04:49:26;99976.75;;;9.13
24586;BMP280;12743;52.262;6.172;2023-04-29T04:51:53;99990.91;;;9.12
24586;BMP280;12743;52.262;6.172;2023-04-29T04:54:20;99963.31;;;9.02
24586;BMP280;12743;52.262;6.172;2023-04-29T04:56:50;99995.25;;;9.08
24586;BMP280;12743;52.262;6.172;2023-04-29T04:59:17;99996.28;;;9.03
24586;BMP280;12743;52.262;6.172;2023-04-29T05:01:44;99992.66;;;9.08
24586;BMP280;12743;52.262;6.172;2023-04-29T05:04:11;100000.97;;;9.10
24586;BMP280;12743;52.262;6.172;2023-04-29T05:06:37;99995.38;;;9.11
24586;BMP280;12743;52.262;6.172;2023-04-29T05:09:04;100019.41;;;9.13
24586;BMP280;12743;52.262;6.172;2023-04-29T05:11:33;100009.47;;;9.07
24586;BMP280;12743;52.262;6.172;2023-04-29T05:14:11;99999.44;;;8.97
24586;BMP280;12743;52.262;6.172;2023-04-29T05:16:38;100021.56;;;9.11
24586;BMP280;12743;52.262;6.172;2023-04-29T05:19:04;100023.22;;;9.16
24586;BMP280;12743;52.262;6.172;2023-04-29T05:21:35;100030.53;;;9.10
24586;BMP280;12743;52.262;6.172;2023-04-29T05:24:02;100037.41;;;9.03
24586;BMP280;12743;52.262;6.172;2023-04-29T05:26:28;100023.44;;;8.99
24586;BMP280;12743;52.262;6.172;2023-04-29T05:28:58;100034.16;;;8.94
24586;BMP280;12743;52.262;6.172;2023-04-29T05:31:26;100034.78;;;9.03
24586;BMP280;12743;52.262;6.172;2023-04-29T05:33:55;100030.97;;;9.00
24586;BMP280;12743;52.262;6.172;2023-04-29T05:36:23;100048.97;;;9.02
24586;BMP280;12743;52.262;6.172;2023-04-29T05:38:49;100034.97;;;8.98
24586;BMP280;12743;52.262;6.172;2023-04-29T05:41:17;100040.81;;;9.03
24586;BMP280;12743;52.262;6.172;2023-04-29T05:43:53;100048.97;;;9.02
24586;BMP280;12743;52.262;6.172;2023-04-29T05:46:20;100039.25;;;9.02
24586;BMP280;12743;52.262;6.172;2023-04-29T05:48:48;100053.91;;;9.03
24586;BMP280;12743;52.262;6.172;2023-04-29T05:51:16;100056.19;;;9.05
24586;BMP280;12743;52.262;6.172;2023-04-29T05:53:42;100062.06;;;9.02
24586;BMP280;12743;52.262;6.172;2023-04-29T05:56:09;100074.81;;;9.15
24586;BMP280;12743;52.262;6.172;2023-04-29T05:58:37;100068.28;;;9.21
24586;BMP280;12743;52.262;6.172;2023-04-29T06:01:03;100090.22;;;9.17
24586;BMP280;12743;52.262;6.172;2023-04-29T06:03:30;100093.41;;;9.22
24586;BMP280;12743;52.262;6.172;2023-04-29T06:06:17;100097.44;;;9.20
24586;BMP280;12743;52.262;6.172;2023-04-29T06:09:07;100102.81;;;9.23
24586;BMP280;12743;52.262;6.172;2023-04-29T06:11:49;100106.03;;;9.20
24586;BMP280;12743;52.262;6.172;2023-04-29T06:14:16;100102.69;;;9.20
24586;BMP280;12743;52.262;6.172;2023-04-29T06:16:42;100099.50;;;9.14
24586;BMP280;12743;52.262;6.172;2023-04-29T06:19:09;100104.66;;;9.23
24586;BMP280;12743;52.262;6.172;2023-04-29T06:21:36;100104.66;;;9.23
24586;BMP280;12743;52.262;6.172;2023-04-29T06:24:02;100108.88;;;9.27
24586;BMP280;12743;52.262;6.172;2023-04-29T06:26:29;100110.97;;;9.22
24586;BMP280;12743;52.262;6.172;2023-04-29T06:28:55;100119.72;;;9.26
24586;BMP280;12743;52.262;6.172;2023-04-29T06:31:22;100128.47;;;9.30
24586;BMP280;12743;52.262;6.172;2023-04-29T06:33:53;100114.81;;;9.36
24586;BMP280;12743;52.262;6.172;2023-04-29T06:36:20;100127.03;;;9.32
24586;BMP280;12743;52.262;6.172;2023-04-29T06:39:05;100115.13;;;9.23
24586;BMP280;12743;52.262;6.172;2023-04-29T06:41:55;100148.53;;;9.38
24586;BMP280;12743;52.262;6.172;2023-04-29T06:44:42;100143.28;;;9.50
24586;BMP280;12743;52.262;6.172;2023-04-29T06:47:32;100126.69;;;9.46
24586;BMP280;12743;52.262;6.172;2023-04-29T06:50:09;100179.13;;;9.58
24586;BMP280;12743;52.262;6.172;2023-04-29T06:52:36;100181.97;;;9.53
24586;BMP280;12743;52.262;6.172;2023-04-29T06:55:03;100173.75;;;9.67
24586;BMP280;12743;52.262;6.172;2023-04-29T06:57:29;100192.63;;;9.60
24586;BMP280;12743;52.262;6.172;2023-04-29T06:59:57;100208.81;;;9.62
24586;BMP280;12743;52.262;6.172;2023-04-29T07:02:24;100197.25;;;9.63
24586;BMP280;12743;52.262;6.172;2023-04-29T07:04:50;100237.25;;;9.84
24586;BMP280;12743;52.262;6.172;2023-04-29T07:07:18;100260.53;;;9.86
24586;BMP280;12743;52.262;6.172;2023-04-29T07:09:44;100287.72;;;9.69
24586;BMP280;12743;52.262;6.172;2023-04-29T07:12:11;100327.91;;;9.73
24586;BMP280;12743;52.262;6.172;2023-04-29T07:14:38;100322.59;;;9.94
24586;BMP280;12743;52.262;6.172;2023-04-29T07:17:06;100340.72;;;10.23
24586;BMP280;12743;52.262;6.172;2023-04-29T07:19:33;100356.72;;;10.18
24586;BMP280;12743;52.262;6.172;2023-04-29T07:22:00;100354.53;;;10.20
24586;BMP280;12743;52.262;6.172;2023-04-29T07:24:26;100377.81;;;10.10
24586;BMP280;12743;52.262;6.172;2023-04-29T07:26:53;100409.75;;;10.12
24586;BMP280;12743;52.262;6.172;2023-04-29T07:29:19;100407.44;;;10.22
24586;BMP280;12743;52.262;6.172;2023-04-29T07:31:46;100424.47;;;10.04
24586;BMP280;12743;52.262;6.172;2023-04-29T07:34:13;100435.63;;;10.13
24586;BMP280;12743;52.262;6.172;2023-04-29T07:36:39;100454.00;;;10.13
24586;BMP280;12743;52.262;6.172;2023-04-29T07:39:06;100465.75;;;10.28
24586;BMP280;12743;52.262;6.172;2023-04-29T07:41:33;100443.41;;;10.22
24586;BMP280;12743;52.262;6.172;2023-04-29T07:43:59;100480.22;;;10.58
24586;BMP280;12743;52.262;6.172;2023-04-29T07:46:26;100484.47;;;10.99
24586;BMP280;12743;52.262;6.172;2023-04-29T07:48:52;100534.84;;;10.89
24586;BMP280;12743;52.262;6.172;2023-04-29T07:51:19;100532.09;;;10.61
24586;BMP280;12743;52.262;6.172;2023-04-29T07:53:47;100553.72;;;10.70
24586;BMP280;12743;52.262;6.172;2023-04-29T07:56:13;100569.75;;;10.77
24586;BMP280;12743;52.262;6.172;2023-04-29T07:58:40;100584.19;;;10.71
24586;BMP280;12743;52.262;6.172;2023-04-29T08:01:07;100587.38;;;10.76
24586;BMP280;12743;52.262;6.172;2023-04-29T08:03:35;100618.59;;;11.14
24586;BMP280;12743;52.262;6.172;2023-04-29T08:06:06;100633.91;;;10.88
24586;BMP280;12743;52.262;6.172;2023-04-29T08:08:33;100625.19;;;11.08
24586;BMP280;12743;52.262;6.172;2023-04-29T08:11:00;100634.94;;;11.08
24586;BMP280;12743;52.262;6.172;2023-04-29T08:13:27;100640.38;;;11.03
24586;BMP280;12743;52.262;6.172;2023-04-29T08:15:54;100655.91;;;10.96
24586;BMP280;12743;52.262;6.172;2023-04-29T08:18:20;100699.75;;;11.16
24586;BMP280;12743;52.262;6.172;2023-04-29T08:20:47;100709.19;;;11.41
24586;BMP280;12743;52.262;6.172;2023-04-29T08:23:14;100733.53;;;11.38
24586;BMP280;12743;52.262;6.172;2023-04-29T08:25:42;100735.81;;;11.39
24586;BMP280;12743;52.262;6.172;2023-04-29T08:28:09;100735.31;;;11.58
24586;BMP280;12743;52.262;6.172;2023-04-29T08:30:40;100751.84;;;11.71
24586;BMP280;12743;52.262;6.172;2023-04-29T08:33:07;100772.53;;;11.48
24586;BMP280;12743;52.262;6.172;2023-04-29T08:35:34;100766.88;;;11.58
24586;BMP280;12743;52.262;6.172;2023-04-29T08:38:04;100783.38;;;11.46
24586;BMP280;12743;52.262;6.172;2023-04-29T08:40:42;100778.81;;;11.68
24586;BMP280;12743;52.262;6.172;2023-04-29T08:43:09;100786.03;;;11.71
24586;BMP280;12743;52.262;6.172;2023-04-29T08:45:36;100775.19;;;11.96
24586;BMP280;12743;52.262;6.172;2023-04-29T08:48:04;100780.25;;;11.89
24586;BMP280;12743;52.262;6.172;2023-04-29T08:50:37;100799.41;;;11.66
24586;BMP280;12743;52.262;6.172;2023-04-29T08:53:08;100823.00;;;12.10
24586;BMP280;12743;52.262;6.172;2023-04-29T08:55:40;100778.31;;;12.26
24586;BMP280;12743;52.262;6.172;2023-04-29T08:58:08;100884.28;;;12.47
24586;BMP280;12743;52.262;6.172;2023-04-29T09:00:35;100911.84;;;12.38
24586;BMP280;12743;52.262;6.172;2023-04-29T09:03:15;100927.31;;;12.15
24586;BMP280;12743;52.262;6.172;2023-04-29T09:05:47;100907.13;;;12.19
24586;BMP280;12743;52.262;6.172;2023-04-29T09:08:15;100899.88;;;12.40
24586;BMP280;12743;52.262;6.172;2023-04-29T09:10:42;100935.13;;;12.87
24586;BMP280;12743;52.262;6.172;2023-04-29T09:13:24;100984.13;;;12.88
24586;BMP280;12743;52.262;6.172;2023-04-29T09:15:52;101038.50;;;13.45
24586;BMP280;12743;52.262;6.172;2023-04-29T09:18:44;101077.38;;;13.60
24586;BMP280;12743;52.262;6.172;2023-04-29T09:23:56;101047.53;;;13.71
24586;BMP280;12743;52.262;6.172;2023-04-29T09:26:23;101059.78;;;13.24
24586;BMP280;12743;52.262;6.172;2023-04-29T09:29:09;101048.84;;;12.98
24586;BMP280;12743;52.262;6.172;2023-04-29T09:31:37;101056.84;;;12.77
24586;BMP280;12743;52.262;6.172;2023-04-29T09:34:07;101050.00;;;13.13
24586;BMP280;12743;52.262;6.172;2023-04-29T09:36:47;101084.81;;;13.42
24586;BMP280;12743;52.262;6.172;2023-04-29T09:39:15;101096.16;;;13.43
24586;BMP280;12743;52.262;6.172;2023-04-29T09:47:06;101046.63;;;13.12
24586;BMP280;12743;52.262;6.172;2023-04-29T09:49:38;101080.81;;;12.97
24586;BMP280;12743;52.262;6.172;2023-04-29T09:52:08;101081.63;;;13.37
24586;BMP280;12743;52.262;6.172;2023-04-29T09:54:37;101121.41;;;14.42
24586;BMP280;12743;52.262;6.172;2023-04-29T09:57:05;101175.25;;;14.50
24586;BMP280;12743;52.262;6.172;2023-04-29T09:59:33;101196.34;;;14.78
24586;BMP280;12743;52.262;6.172;2023-04-29T10:02:06;101222.81;;;14.34
24586;BMP280;12743;52.262;6.172;2023-04-29T10:04:37;101195.63;;;13.54
24586;BMP280;12743;52.262;6.172;2023-04-29T10:07:05;101166.28;;;13.32
24586;BMP280;12743;52.262;6.172;2023-04-29T10:09:36;101161.09;;;13.59
24586;BMP280;12743;52.262;6.172;2023-04-29T10:12:04;101191.00;;;13.51
24586;BMP280;12743;52.262;6.172;2023-04-29T10:14:38;101223.09;;;14.17
24586;BMP280;12743;52.262;6.172;2023-04-29T10:17:15;101213.56;;;15.03
24586;BMP280;12743;52.262;6.172;2023-04-29T10:19:51;101259.13;;;14.81
24586;BMP280;12743;52.262;6.172;2023-04-29T10:22:28;101279.94;;;15.29
24586;BMP280;12743;52.262;6.172;2023-04-29T10:25:00;101286.97;;;15.06
24586;BMP280;12743;52.262;6.172;2023-04-29T10:27:26;101303.09;;;15.48
24586;BMP280;12743;52.262;6.172;2023-04-29T10:29:55;101299.75;;;15.35
24586;BMP280;12743;52.262;6.172;2023-04-29T10:32:23;101296.97;;;15.28
24586;BMP280;12743;52.262;6.172;2023-04-29T10:34:54;101277.25;;;14.94
24586;BMP280;12743;52.262;6.172;2023-04-29T10:37:21;101265.88;;;14.23
24586;BMP280;12743;52.262;6.172;2023-04-29T10:40:11;101290.88;;;14.96
24586;BMP280;12743;52.262;6.172;2023-04-29T10:45:29;101331.44;;;15.47
24586;BMP280;12743;52.262;6.172;2023-04-29T10:50:31;101382.06;;;16.27
24586;BMP280;12743;52.262;6.172;2023-04-29T10:53:01;101377.22;;;15.63
24586;BMP280;12743;52.262;6.172;2023-04-29T10:55:28;101316.94;;;15.25
24586;BMP280;12743;52.262;6.172;2023-04-29T10:57:55;101292.16;;;14.31
24586;BMP280;12743;52.262;6.172;2023-04-29T11:00:25;101297.31;;;14.12
24586;BMP280;12743;52.262;6.172;2023-04-29T11:02:56;101260.19;;;14.36
24586;BMP280;12743;52.262;6.172;2023-04-29T11:05:34;101276.34;;;14.19
24586;BMP280;12743;52.262;6.172;2023-04-29T11:08:18;101267.88;;;14.26
24586;BMP280;12743;52.262;6.172;2023-04-29T11:10:52;101257.97;;;14.50
24586;BMP280;12743;52.262;6.172;2023-04-29T11:13:30;101267.75;;;14.78
24586;BMP280;12743;52.262;6.172;2023-04-29T11:16:03;101296.34;;;15.03
24586;BMP280;12743;52.262;6.172;2023-04-29T11:18:31;101290.03;;;15.39
24586;BMP280;12743;52.262;6.172;2023-04-29T11:23:34;101343.88;;;15.93
24586;BMP280;12743;52.262;6.172;2023-04-29T11:26:01;101373.59;;;15.09
24586;BMP280;12743;52.262;6.172;2023-04-29T11:28:29;101341.72;;;14.90
24586;BMP280;12743;52.262;6.172;2023-04-29T11:30:57;101317.19;;;14.62
24586;BMP280;12743;52.262;6.172;2023-04-29T11:33:24;101327.28;;;14.72
24586;BMP280;12743;52.262;6.172;2023-04-29T11:35:53;101345.75;;;14.44
24586;BMP280;12743;52.262;6.172;2023-04-29T11:38:26;101321.47;;;14.26
24586;BMP280;12743;52.262;6.172;2023-04-29T11:40:54;101330.44;;;14.49
24586;BMP280;12743;52.262;6.172;2023-04-29T11:43:22;101327.56;;;14.42
24586;BMP280;12743;52.262;6.172;2023-04-29T11:45:51;101306.81;;;14.69
24586;BMP280;12743;52.262;6.172;2023-04-29T11:48:24;101345.97;;;15.38
24586;BMP280;12743;52.262;6.172;2023-04-29T11:50:58;101406.00;;;15.80
24586;BMP280;12743;52.262;6.172;2023-04-29T11:53:25;101405.94;;;15.61
24586;BMP280;12743;52.262;6.172;2023-04-29T11:55:53;101416.06;;;16.60
24586;BMP280;12743;52.262;6.172;2023-04-29T11:58:23;101438.22;;;15.82
24586;BMP280;12743;52.262;6.172;2023-04-29T12:00:50;101425.84;;;15.71
24586;BMP280;12743;52.262;6.172;2023-04-29T12:03:19;101411.09;;;15.11
24586;BMP280;12743;52.262;6.172;2023-04-29T12:05:50;101408.56;;;15.30
24586;BMP280;12743;52.262;6.172;2023-04-29T12:08:21;101390.63;;;15.39
24586;BMP280;12743;52.262;6.172;2023-04-29T12:10:48;101414.03;;;15.68
24586;BMP280;12743;52.262;6.172;2023-04-29T12:13:18;101408.94;;;16.10
24586;BMP280;12743;52.262;6.172;2023-04-29T12:15:45;101420.75;;;16.85
24586;BMP280;12743;52.262;6.172;2023-04-29T12:18:13;101393.34;;;16.24
24586;BMP280;12743;52.262;6.172;2023-04-29T12:20:40;101408.69;;;15.99
24586;BMP280;12743;52.262;6.172;2023-04-29T12:23:16;101415.41;;;15.93
24586;BMP280;12743;52.262;6.172;2023-04-29T12:28:16;101454.69;;;16.07
24586;BMP280;12743;52.262;6.172;2023-04-29T12:30:44;101452.03;;;15.91
24586;BMP280;12743;52.262;6.172;2023-04-29T12:33:17;101427.53;;;15.48
24586;BMP280;12743;52.262;6.172;2023-04-29T12:35:44;101378.66;;;15.29
24586;BMP280;12743;52.262;6.172;2023-04-29T12:38:10;101424.91;;;15.48
24586;BMP280;12743;52.262;6.172;2023-04-29T12:40:40;101434.56;;;16.22
24586;BMP280;12743;52.262;6.172;2023-04-29T12:43:07;101465.47;;;16.14
24586;BMP280;12743;52.262;6.172;2023-04-29T12:45:34;101453.03;;;16.34
24586;BMP280;12743;52.262;6.172;2023-04-29T12:48:01;101479.81;;;16.48
24586;BMP280;12743;52.262;6.172;2023-04-29T12:50:36;101506.13;;;17.29
24586;BMP280;12743;52.262;6.172;2023-04-29T12:53:04;101505.94;;;17.64
24586;BMP280;12743;52.262;6.172;2023-04-29T12:55:33;101490.34;;;18.67
24586;BMP280;12743;52.262;6.172;2023-04-29T12:58:04;101488.53;;;17.02
24586;BMP280;12743;52.262;6.172;2023-04-29T13:00:31;101505.56;;;16.82
24586;BMP280;12743;52.262;6.172;2023-04-29T13:02:57;101495.38;;;16.30
24586;BMP280;12743;52.262;6.172;2023-04-29T13:05:24;101470.38;;;16.31
24586;BMP280;12743;52.262;6.172;2023-04-29T13:07:51;101497.00;;;16.19
24586;BMP280;12743;52.262;6.172;2023-04-29T13:10:18;101512.06;;;16.65
24586;BMP280;12743;52.262;6.172;2023-04-29T13:12:44;101517.88;;;17.51
24586;BMP280;12743;52.262;6.172;2023-04-29T13:15:11;101515.38;;;17.61
24586;BMP280;12743;52.262;6.172;2023-04-29T13:17:37;101514.22;;;17.36
24586;BMP280;12743;52.262;6.172;2023-04-29T13:20:05;101505.94;;;17.64
24586;BMP280;12743;52.262;6.172;2023-04-29T13:22:32;101532.47;;;18.32
24586;BMP280;12743;52.262;6.172;2023-04-29T13:24:59;101514.50;;;17.31
24586;BMP280;12743;52.262;6.172;2023-04-29T13:27:26;101511.34;;;18.46
24586;BMP280;12743;52.262;6.172;2023-04-29T13:29:52;101511.38;;;17.94
24586;BMP280;12743;52.262;6.172;2023-04-29T13:32:19;101516.09;;;16.78
24586;BMP280;12743;52.262;6.172;2023-04-29T13:34:49;101538.66;;;17.45
24586;BMP280;12743;52.262;6.172;2023-04-29T13:37:16;101521.03;;;18.05
24586;BMP280;12743;52.262;6.172;2023-04-29T13:39:42;101536.06;;;18.20
24586;BMP280;12743;52.262;6.172;2023-04-29T13:42:13;101528.25;;;18.31
24586;BMP280;12743;52.262;6.172;2023-04-29T13:44:41;101540.91;;;16.86
24586;BMP280;12743;52.262;6.172;2023-04-29T13:47:29;101511.34;;;16.68
24586;BMP280;12743;52.262;6.172;2023-04-29T13:49:57;101535.25;;;16.53
24586;BMP280;12743;52.262;6.172;2023-04-29T13:52:43;101534.25;;;15.95
24586;BMP280;12743;52.262;6.172;2023-04-29T13:55:13;101526.91;;;15.88
24586;BMP280;12743;52.262;6.172;2023-04-29T13:58:00;101526.78;;;17.20
24586;BMP280;12743;52.262;6.172;2023-04-29T14:00:46;101554.53;;;18.36
24586;BMP280;12743;52.262;6.172;2023-04-29T14:03:33;101542.22;;;18.24
24586;BMP280;12743;52.262;6.172;2023-04-29T14:06:01;101550.03;;;18.40
24586;BMP280;12743;52.262;6.172;2023-04-29T14:08:28;101538.56;;;17.42
24586;BMP280;12743;52.262;6.172;2023-04-29T14:10:54;101539.91;;;16.94
24586;BMP280;12743;52.262;6.172;2023-04-29T14:13:21;101531.75;;;16.14
24586;BMP280;12743;52.262;6.172;2023-04-29T14:15:47;101541.66;;;16.17
24586;BMP280;12743;52.262;6.172;2023-04-29T14:18:14;101549.72;;;17.09
24586;BMP280;12743;52.262;6.172;2023-04-29T14:20:41;101566.19;;;18.28
24586;BMP280;12743;52.262;6.172;2023-04-29T14:23:07;101563.56;;;19.17
24586;BMP280;12743;52.262;6.172;2023-04-29T14:25:34;101571.94;;;19.59
24586;BMP280;12743;52.262;6.172;2023-04-29T14:28:00;101583.53;;;18.70
24586;BMP280;12743;52.262;6.172;2023-04-29T14:30:27;101571.16;;;17.39
24586;BMP280;12743;52.262;6.172;2023-04-29T14:32:53;101547.97;;;16.44
24586;BMP280;12743;52.262;6.172;2023-04-29T14:35:20;101561.22;;;15.97
24586;BMP280;12743;52.262;6.172;2023-04-29T14:37:47;101582.34;;;17.29
24586;BMP280;12743;52.262;6.172;2023-04-29T14:40:13;101573.22;;;17.90
24586;BMP280;12743;52.262;6.172;2023-04-29T14:42:40;101573.94;;;17.08